createdAt,value
2022-09-12T00:01:46.180Z,16.30
2022-09-12T00:04:16.367Z,16.31
2022-09-12T00:06:44.374Z,16.24
2022-09-12T00:09:14.468Z,16.23
2022-09-12T00:11:47.120Z,16.25
2022-09-12T00:14:18.803Z,16.27
2022-09-12T00:16:47.057Z,16.29
2022-09-12T00:19:15.245Z,16.27
2022-09-12T00:21:44.785Z,16.26
2022-09-12T00:24:12.658Z,16.29
2022-09-12T00:26:40.706Z,16.26
2022-09-12T00:29:15.307Z,16.21
2022-09-12T00:31:43.229Z,16.24
2022-09-12T00:34:11.889Z,16.29
2022-09-12T00:36:42.253Z,16.24
2022-09-12T00:39:16.787Z,16.28
2022-09-12T00:41:45.541Z,16.29
2022-09-12T00:44:47.645Z,16.30
2022-09-12T00:47:37.616Z,16.28
2022-09-12T00:50:13.201Z,16.30
2022-09-12T00:52:51.647Z,16.28
2022-09-12T00:55:26.310Z,16.21
2022-09-12T00:58:00.695Z,16.17
2022-09-12T01:00:30.411Z,16.19
2022-09-12T01:03:07.181Z,16.14
2022-09-12T01:05:40.845Z,16.11
2022-09-12T01:08:08.674Z,16.11
2022-09-12T01:10:40.094Z,16.10
2022-09-12T01:13:11.020Z,16.13
2022-09-12T01:15:41.126Z,16.05
2022-09-12T01:18:21.025Z,16.00
2022-09-12T01:21:08.954Z,16.07
2022-09-12T01:24:12.092Z,16.09
2022-09-12T01:27:47.765Z,16.08
2022-09-12T01:30:39.424Z,16.03
2022-09-12T01:33:48.845Z,16.01
2022-09-12T01:36:38.085Z,16.01
2022-09-12T01:39:12.313Z,15.96
2022-09-12T01:41:52.944Z,15.95
2022-09-12T01:44:35.013Z,15.97
2022-09-12T01:47:10.048Z,15.94
2022-09-12T01:49:50.017Z,15.98
2022-09-12T01:52:26.402Z,16.02
2022-09-12T01:55:01.528Z,15.96
2022-09-12T01:57:41.274Z,15.98
2022-09-12T02:00:13.076Z,15.97
2022-09-12T02:02:55.446Z,15.95
2022-09-12T02:05:33.495Z,15.97
2022-09-12T02:08:09.602Z,15.96
2022-09-12T02:10:45.286Z,15.91
2022-09-12T02:13:22.365Z,15.93
2022-09-12T02:15:58.927Z,15.90
2022-09-12T02:18:32.810Z,15.88
2022-09-12T02:21:06.474Z,15.93
2022-09-12T02:23:41.386Z,15.97
2022-09-12T02:26:21.581Z,15.99
2022-09-12T02:28:50.923Z,16.00
2022-09-12T02:31:28.263Z,16.01
2022-09-12T02:34:13.334Z,16.01
2022-09-12T02:36:52.265Z,15.95
2022-09-12T02:39:21.224Z,15.93
2022-09-12T02:41:53.155Z,15.91
2022-09-12T02:44:21.722Z,15.91
2022-09-12T02:46:57.496Z,15.89
2022-09-12T02:49:27.872Z,15.87
2022-09-12T02:51:56.212Z,15.86
2022-09-12T02:54:25.658Z,15.84
2022-09-12T02:56:53.748Z,15.78
2022-09-12T02:59:25.164Z,15.71
2022-09-12T03:02:25.048Z,15.74
2022-09-12T03:05:22.878Z,15.72
2022-09-12T03:08:26.772Z,15.68
2022-09-12T03:11:43.315Z,15.57
2022-09-12T03:14:30.616Z,15.52
2022-09-12T03:17:14.418Z,15.47
2022-09-12T03:19:55.284Z,15.45
2022-09-12T03:22:33.780Z,15.45
2022-09-12T03:25:13.496Z,15.44
2022-09-12T03:27:48.790Z,15.36
2022-09-12T03:30:17.007Z,15.34
2022-09-12T03:32:48.595Z,15.36
2022-09-12T03:35:22.971Z,15.30
2022-09-12T03:37:53.547Z,15.34
2022-09-12T03:40:21.732Z,15.34
2022-09-12T03:42:49.828Z,15.22
2022-09-12T03:45:18.030Z,15.15
2022-09-12T03:47:45.956Z,15.20
2022-09-12T03:50:16.153Z,15.15
2022-09-12T03:52:44.146Z,15.12
2022-09-12T03:55:13.545Z,15.24
2022-09-12T03:57:42.070Z,15.22
2022-09-12T04:00:14.422Z,15.24
2022-09-12T04:02:45.580Z,15.24
2022-09-12T04:05:13.619Z,15.17
2022-09-12T04:07:41.741Z,15.18
2022-09-12T04:10:10.302Z,15.18
2022-09-12T04:12:39.841Z,15.22
2022-09-12T04:15:10.195Z,15.23
2022-09-12T04:17:39.566Z,15.21
2022-09-12T04:20:08.360Z,15.09
2022-09-12T04:22:36.572Z,15.04
2022-09-12T04:25:05.626Z,15.04
2022-09-12T04:27:34.777Z,15.06
2022-09-12T04:30:06.171Z,15.07
2022-09-12T04:32:34.032Z,15.06
2022-09-12T04:35:02.188Z,15.05
2022-09-12T04:37:31.239Z,15.02
2022-09-12T04:40:01.156Z,15.02
2022-09-12T04:42:29.883Z,14.92
2022-09-12T04:44:58.023Z,14.94
2022-09-12T04:47:27.417Z,14.95
2022-09-12T04:49:55.582Z,14.98
2022-09-12T04:52:23.445Z,15.00
2022-09-12T04:54:51.278Z,15.04
2022-09-12T04:57:19.379Z,15.00
2022-09-12T04:59:47.256Z,15.01
2022-09-12T05:02:15.310Z,15.00
2022-09-12T05:04:47.005Z,15.01
2022-09-12T05:07:14.893Z,14.99
2022-09-12T05:09:43.195Z,14.98
2022-09-12T05:12:11.258Z,14.99
2022-09-12T05:14:39.498Z,14.92
2022-09-12T05:17:08.361Z,14.85
2022-09-12T05:19:36.939Z,14.82
2022-09-12T05:22:07.426Z,14.83
2022-09-12T05:24:36.111Z,14.87
2022-09-12T05:27:04.728Z,15.00
2022-09-12T05:29:32.672Z,15.01
2022-09-12T05:32:01.955Z,15.00
2022-09-12T05:34:30.083Z,15.05
2022-09-12T05:36:58.207Z,15.25
2022-09-12T05:39:28.358Z,15.37
2022-09-12T05:41:56.546Z,15.44
2022-09-12T05:44:24.827Z,15.52
2022-09-12T05:46:53.574Z,15.58
2022-09-12T05:49:21.617Z,15.71
2022-09-12T05:51:50.901Z,15.67
2022-09-12T05:54:20.560Z,15.75
2022-09-12T05:56:49.869Z,15.80
2022-09-12T05:59:20.535Z,15.91
2022-09-12T06:01:49.631Z,15.95
2022-09-12T06:04:17.891Z,16.07
2022-09-12T06:06:46.758Z,16.18
2022-09-12T06:09:16.541Z,16.28
2022-09-12T06:11:46.601Z,16.35
2022-09-12T06:14:17.636Z,16.38
2022-09-12T06:16:48.098Z,16.56
2022-09-12T06:19:19.485Z,16.64
2022-09-12T06:21:50.020Z,16.89
2022-09-12T06:24:19.994Z,17.05
2022-09-12T06:26:49.787Z,17.25
2022-09-12T06:29:19.620Z,17.53
2022-09-12T06:31:47.409Z,17.69
2022-09-12T06:34:16.690Z,17.83
2022-09-12T06:36:47.345Z,18.10
2022-09-12T06:39:17.513Z,18.15
2022-09-12T06:41:47.873Z,18.32
2022-09-12T06:44:20.031Z,18.50
2022-09-12T06:46:48.843Z,18.53
2022-09-12T06:49:17.980Z,18.65
2022-09-12T06:51:47.511Z,18.75
2022-09-12T06:54:17.427Z,18.92
2022-09-12T06:56:45.291Z,19.12
2022-09-12T06:59:13.327Z,19.22
2022-09-12T07:01:42.901Z,19.24
2022-09-12T07:04:13.816Z,19.40
2022-09-12T07:06:44.016Z,19.39
2022-09-12T07:09:17.380Z,19.57
2022-09-12T07:11:46.616Z,19.82
2022-09-12T07:14:16.218Z,19.80
2022-09-12T07:16:45.432Z,19.79
2022-09-12T07:19:13.327Z,19.90
2022-09-12T07:21:43.166Z,19.88
2022-09-12T07:24:11.458Z,19.91
2022-09-12T07:26:41.833Z,19.89
2022-09-12T07:29:36.682Z,19.87
2022-09-12T07:32:07.536Z,19.85
2022-09-12T07:34:35.862Z,19.70
2022-09-12T07:37:03.952Z,19.88
2022-09-12T07:39:32.794Z,19.85
2022-09-12T07:42:02.561Z,19.98
2022-09-12T07:44:30.686Z,20.15
2022-09-12T07:46:58.777Z,20.19
2022-09-12T07:49:28.216Z,20.19
2022-09-12T07:51:56.883Z,20.17
2022-09-12T07:54:24.754Z,20.13
2022-09-12T07:56:52.756Z,20.13
2022-09-12T07:59:41.481Z,20.20
2022-09-12T08:02:17.549Z,20.27
2022-09-12T08:04:49.104Z,20.25
2022-09-12T08:07:19.095Z,20.40
2022-09-12T08:09:49.245Z,20.62
2022-09-12T08:12:20.158Z,20.71
2022-09-12T08:14:48.473Z,20.91
2022-09-12T08:17:16.404Z,20.89
2022-09-12T08:19:44.956Z,20.95
2022-09-12T08:22:14.396Z,20.65
2022-09-12T08:24:44.516Z,20.84
2022-09-12T08:27:17.019Z,21.02
2022-09-12T08:29:45.124Z,21.30
2022-09-12T08:32:13.015Z,21.27
2022-09-12T08:34:40.849Z,21.34
2022-09-12T08:37:08.726Z,21.49
2022-09-12T08:39:40.051Z,21.56
2022-09-12T08:42:24.659Z,21.65
2022-09-12T08:45:11.702Z,21.92
2022-09-12T08:47:45.831Z,22.15
2022-09-12T08:50:20.598Z,22.46
2022-09-12T08:52:58.852Z,22.65
2022-09-12T08:55:35.480Z,22.89
2022-09-12T08:58:17.210Z,23.12
2022-09-12T09:00:59.451Z,23.31
2022-09-12T09:03:58.555Z,23.60
2022-09-12T09:06:52.286Z,23.80
2022-09-12T09:09:39.634Z,23.91
2022-09-12T09:12:23.737Z,23.91
2022-09-12T09:15:14.665Z,24.03
2022-09-12T09:17:51.887Z,24.19
2022-09-12T09:20:32.294Z,24.16
2022-09-12T09:23:08.122Z,24.25
2022-09-12T09:25:52.506Z,24.58
2022-09-12T09:28:31.658Z,24.72
2022-09-12T09:31:00.030Z,24.91
2022-09-12T09:33:35.114Z,25.46
2022-09-12T09:36:20.778Z,25.63
2022-09-12T09:38:54.235Z,26.03
2022-09-12T09:41:51.558Z,26.14
2022-09-12T09:44:21.066Z,26.11
2022-09-12T09:46:54.823Z,26.52
2022-09-12T09:49:25.617Z,26.96
2022-09-12T09:51:58.784Z,26.79
2022-09-12T09:54:36.509Z,26.59
2022-09-12T09:57:05.152Z,26.45
2022-09-12T09:59:35.645Z,25.99
2022-09-12T10:02:24.297Z,26.02
2022-09-12T10:04:58.751Z,26.25
2022-09-12T10:07:27.375Z,26.49
2022-09-12T10:10:14.842Z,26.61
2022-09-12T10:12:43.462Z,26.93
2022-09-12T10:15:26.703Z,27.04
2022-09-12T10:17:56.914Z,26.98
2022-09-12T10:20:38.517Z,27.16
2022-09-12T10:23:30.338Z,27.50
2022-09-12T10:26:03.934Z,28.18
2022-09-12T10:28:39.289Z,28.73
2022-09-12T10:31:17.427Z,29.32
2022-09-12T10:33:53.385Z,29.53
2022-09-12T10:36:29.115Z,29.66
2022-09-12T10:39:03.098Z,29.84
2022-09-12T10:41:40.839Z,30.28
2022-09-12T10:44:17.640Z,30.48
2022-09-12T10:46:47.192Z,30.82
2022-09-12T10:49:27.856Z,31.18
2022-09-12T10:52:15.433Z,31.47
2022-09-12T10:54:43.769Z,31.65
2022-09-12T10:57:44.223Z,31.41
2022-09-12T11:00:17.884Z,31.79
2022-09-12T11:03:08.383Z,32.23
2022-09-12T11:05:57.805Z,32.04
2022-09-12T11:09:06.281Z,32.38
2022-09-12T11:11:58.446Z,32.48
2022-09-12T11:14:44.332Z,32.38
2022-09-12T11:17:30.213Z,32.52
2022-09-12T11:20:39.107Z,32.43
2022-09-12T11:23:44.839Z,32.52
2022-09-12T11:26:34.392Z,32.35
2022-09-12T11:29:16.252Z,32.68
2022-09-12T11:32:10.536Z,32.76
2022-09-12T11:34:58.793Z,32.83
2022-09-12T11:37:49.368Z,32.96
2022-09-12T11:40:30.807Z,33.26
2022-09-12T11:43:07.545Z,33.06
2022-09-12T11:45:42.896Z,33.56
2022-09-12T11:48:28.307Z,33.73
2022-09-12T11:51:02.492Z,33.88
2022-09-12T11:53:40.975Z,34.44
2022-09-12T11:56:18.535Z,34.52
2022-09-12T11:58:58.905Z,34.44
2022-09-12T12:01:45.005Z,34.46
2022-09-12T12:04:27.573Z,34.40
2022-09-12T12:07:03.298Z,34.41
2022-09-12T12:09:37.413Z,33.69
2022-09-12T12:12:16.848Z,33.81
2022-09-12T12:14:49.182Z,33.81
2022-09-12T12:17:23.173Z,34.18
2022-09-12T12:20:05.533Z,33.98
2022-09-12T12:22:36.297Z,34.11
2022-09-12T12:25:29.916Z,34.25
2022-09-12T12:28:01.813Z,34.24
2022-09-12T12:31:01.168Z,34.15
2022-09-12T12:34:00.612Z,34.10
2022-09-12T12:36:52.436Z,33.98
2022-09-12T12:40:04.834Z,33.98
2022-09-12T12:43:31.483Z,33.57
2022-09-12T12:46:05.053Z,33.39
2022-09-12T12:48:46.254Z,33.41
2022-09-12T12:51:44.367Z,33.23
2022-09-12T12:54:50.145Z,33.60
2022-09-12T12:57:52.672Z,33.80
2022-09-12T13:00:35.394Z,33.52
2022-09-12T13:03:23.939Z,33.50
2022-09-12T13:06:00.851Z,33.37
2022-09-12T13:08:33.113Z,32.41
2022-09-12T13:11:08.340Z,31.96
2022-09-12T13:13:44.087Z,31.93
2022-09-12T13:16:35.069Z,31.27
2022-09-12T13:19:08.384Z,30.55
2022-09-12T13:21:36.600Z,31.05
2022-09-12T13:24:13.916Z,31.62
2022-09-12T13:26:46.213Z,31.86
2022-09-12T13:29:18.566Z,32.24
2022-09-12T13:31:54.658Z,32.39
2022-09-12T13:34:29.207Z,32.70
2022-09-12T13:37:28.069Z,32.86
2022-09-12T13:40:16.835Z,32.29
2022-09-12T13:42:51.119Z,32.51
2022-09-12T13:45:22.787Z,32.41
2022-09-12T13:47:58.893Z,32.57
2022-09-12T13:50:32.970Z,32.59
2022-09-12T13:53:07.173Z,33.02
2022-09-12T13:55:41.867Z,33.18
2022-09-12T13:58:21.150Z,33.08
2022-09-12T14:01:02.664Z,32.89
2022-09-12T14:03:58.987Z,32.81
2022-09-12T14:06:27.723Z,32.77
2022-09-12T14:09:01.310Z,33.04
2022-09-12T14:11:34.133Z,33.14
2022-09-12T14:14:17.140Z,33.15
2022-09-12T14:16:45.118Z,32.99
2022-09-12T14:19:16.426Z,32.71
2022-09-12T14:21:46.432Z,32.28
2022-09-12T14:24:15.000Z,32.19
2022-09-12T14:26:44.840Z,32.07
2022-09-12T14:29:17.683Z,32.15
2022-09-12T14:31:46.176Z,31.79
2022-09-12T14:34:18.434Z,31.63
2022-09-12T14:36:49.909Z,31.55
2022-09-12T14:39:31.889Z,31.53
2022-09-12T14:42:06.191Z,31.30
2022-09-12T14:44:36.616Z,31.16
2022-09-12T14:47:20.150Z,30.58
2022-09-12T14:49:54.129Z,30.47
2022-09-12T14:52:28.754Z,30.26
2022-09-12T14:54:59.621Z,30.37
2022-09-12T14:57:39.227Z,30.61
2022-09-12T15:00:26.278Z,31.01
2022-09-12T15:02:54.763Z,30.99
2022-09-12T15:05:27.919Z,31.05
2022-09-12T15:08:00.652Z,30.82
2022-09-12T15:10:32.312Z,30.68
2022-09-12T15:13:19.586Z,30.76
2022-09-12T15:15:51.195Z,31.05
2022-09-12T15:18:20.649Z,31.16
2022-09-12T15:20:54.807Z,31.38
2022-09-12T15:23:40.135Z,31.42
2022-09-12T15:26:11.605Z,31.26
2022-09-12T15:28:40.459Z,31.04
2022-09-12T15:31:20.337Z,31.03
2022-09-12T15:33:49.111Z,30.98
2022-09-12T15:36:23.335Z,31.03
2022-09-12T15:38:53.339Z,30.91
2022-09-12T15:41:26.672Z,30.82
2022-09-12T15:43:54.700Z,30.77
2022-09-12T15:46:23.648Z,30.37
2022-09-12T15:48:52.320Z,29.85
2022-09-12T15:51:22.553Z,29.50
2022-09-12T15:53:51.730Z,29.30
2022-09-12T15:56:21.749Z,29.27
2022-09-12T15:58:58.672Z,29.07
2022-09-12T16:01:28.915Z,29.00
2022-09-12T16:04:01.281Z,28.80
2022-09-12T16:06:36.773Z,28.75
2022-09-12T16:09:05.718Z,28.68
2022-09-12T16:11:34.951Z,28.59
2022-09-12T16:14:04.691Z,28.43
2022-09-12T16:16:32.718Z,28.29
2022-09-12T16:19:00.686Z,28.34
2022-09-12T16:21:29.894Z,28.45
2022-09-12T16:23:59.017Z,28.69
2022-09-12T16:26:26.965Z,28.92
2022-09-12T16:29:06.652Z,28.92
2022-09-12T16:31:39.313Z,28.79
2022-09-12T16:34:07.512Z,28.97
2022-09-12T16:36:36.833Z,28.98
2022-09-12T16:39:06.332Z,29.05
2022-09-12T16:41:34.951Z,28.98
2022-09-12T16:44:05.814Z,28.99
2022-09-12T16:46:34.657Z,28.84
2022-09-12T16:49:02.599Z,28.70
2022-09-12T16:51:38.226Z,28.41
2022-09-12T16:54:06.382Z,28.26
2022-09-12T16:56:34.997Z,28.10
2022-09-12T16:59:04.332Z,27.95
2022-09-12T17:01:35.205Z,27.74
2022-09-12T17:04:06.289Z,27.40
2022-09-12T17:06:35.022Z,27.40
2022-09-12T17:09:05.551Z,27.26
2022-09-12T17:11:39.402Z,27.07
2022-09-12T17:14:08.977Z,26.79
2022-09-12T17:16:40.893Z,26.59
2022-09-12T17:19:18.806Z,26.43
2022-09-12T17:21:49.116Z,26.26
2022-09-12T17:24:20.105Z,26.16
2022-09-12T17:26:51.060Z,26.04
2022-09-12T17:29:20.134Z,25.94
2022-09-12T17:31:50.428Z,25.89
2022-09-12T17:34:18.308Z,25.81
2022-09-12T17:36:48.307Z,25.72
2022-09-12T17:39:18.045Z,25.59
2022-09-12T17:41:47.367Z,25.51
2022-09-12T17:44:16.039Z,25.36
2022-09-12T17:46:44.373Z,25.24
2022-09-12T17:49:16.800Z,25.02
2022-09-12T17:51:47.042Z,24.84
2022-09-12T17:54:20.793Z,24.74
2022-09-12T17:56:51.479Z,24.63
2022-09-12T17:59:23.904Z,24.51
2022-09-12T18:02:10.501Z,24.25
2022-09-12T18:04:42.257Z,24.17
2022-09-12T18:07:10.538Z,24.09
2022-09-12T18:09:41.451Z,23.98
2022-09-12T18:12:12.669Z,23.77
2022-09-12T18:14:40.913Z,23.71
2022-09-12T18:17:11.365Z,23.46
2022-09-12T18:19:40.954Z,23.42
2022-09-12T18:22:09.434Z,23.37
2022-09-12T18:24:39.756Z,23.34
2022-09-12T18:27:07.689Z,23.27
2022-09-12T18:29:36.409Z,23.05
2022-09-12T18:32:04.472Z,22.97
2022-09-12T18:34:32.951Z,22.91
2022-09-12T18:37:01.857Z,22.75
2022-09-12T18:39:29.761Z,22.65
2022-09-12T18:41:59.166Z,22.57
2022-09-12T18:44:27.874Z,22.43
2022-09-12T18:46:56.667Z,22.37
2022-09-12T18:49:24.630Z,22.35
2022-09-12T18:51:52.719Z,22.32
2022-09-12T18:54:20.783Z,22.29
2022-09-12T18:56:48.797Z,22.24
2022-09-12T18:59:20.602Z,22.23
2022-09-12T19:01:48.774Z,22.21
2022-09-12T19:04:17.303Z,22.18
2022-09-12T19:06:48.215Z,22.11
2022-09-12T19:09:20.634Z,22.07
2022-09-12T19:11:50.361Z,21.97
2022-09-12T19:14:23.049Z,21.87
2022-09-12T19:16:52.844Z,21.82
2022-09-12T19:19:22.942Z,21.85
2022-09-12T19:21:51.889Z,21.89
2022-09-12T19:24:21.678Z,21.84
2022-09-12T19:26:51.496Z,21.80
2022-09-12T19:29:22.019Z,21.76
2022-09-12T19:31:54.076Z,21.72
2022-09-12T19:34:22.938Z,21.71
2022-09-12T19:36:50.855Z,21.70
2022-09-12T19:39:19.864Z,21.66
2022-09-12T19:41:48.270Z,21.60
2022-09-12T19:44:19.154Z,21.62
2022-09-12T19:46:48.479Z,21.54
2022-09-12T19:49:16.383Z,21.42
2022-09-12T19:51:45.485Z,21.28
2022-09-12T19:54:14.755Z,21.16
2022-09-12T19:56:42.614Z,21.23
2022-09-12T19:59:11.125Z,21.28
2022-09-12T20:01:39.364Z,21.27
2022-09-12T20:04:08.656Z,21.26
2022-09-12T20:06:36.710Z,21.29
2022-09-12T20:09:04.807Z,21.28
2022-09-12T20:11:32.829Z,21.26
2022-09-12T20:14:01.571Z,21.22
2022-09-12T20:16:30.072Z,21.07
2022-09-12T20:19:02.300Z,20.96
2022-09-12T20:21:36.152Z,20.91
2022-09-12T20:24:07.640Z,21.01
2022-09-12T20:26:36.688Z,21.10
2022-09-12T20:29:05.424Z,21.17
2022-09-12T20:31:36.593Z,21.17
2022-09-12T20:34:06.576Z,21.23
2022-09-12T20:36:35.829Z,21.21
2022-09-12T20:39:05.807Z,21.20
2022-09-12T20:41:36.623Z,21.18
2022-09-12T20:44:04.628Z,21.16
2022-09-12T20:46:33.418Z,21.12
2022-09-12T20:49:01.766Z,21.08
2022-09-12T20:51:30.470Z,20.98
2022-09-12T20:54:03.373Z,20.91
2022-09-12T20:56:34.051Z,20.85
2022-09-12T20:59:04.313Z,20.70
2022-09-12T21:01:33.109Z,20.69
2022-09-12T21:04:02.670Z,20.70
2022-09-12T21:06:31.691Z,20.68
2022-09-12T21:09:01.094Z,20.64
2022-09-12T21:11:29.701Z,20.61
2022-09-12T21:13:58.101Z,20.59
2022-09-12T21:16:26.583Z,20.54
2022-09-12T21:18:58.858Z,20.52
2022-09-12T21:21:27.160Z,20.49
2022-09-12T21:24:00.457Z,20.41
2022-09-12T21:26:29.403Z,20.38
2022-09-12T21:28:58.501Z,20.35
2022-09-12T21:31:27.242Z,20.34
2022-09-12T21:33:55.263Z,20.30
2022-09-12T21:36:24.828Z,20.21
2022-09-12T21:38:52.890Z,20.09
2022-09-12T21:41:22.703Z,19.93
2022-09-12T21:43:51.238Z,19.81
2022-09-12T21:46:19.215Z,19.78
2022-09-12T21:48:47.416Z,19.82
2022-09-12T21:51:15.372Z,19.73
2022-09-12T21:53:43.590Z,19.69
2022-09-12T21:56:11.827Z,19.62
2022-09-12T21:58:41.333Z,19.51
2022-09-12T22:01:11.741Z,19.58
2022-09-12T22:03:42.460Z,19.61
2022-09-12T22:06:10.413Z,19.50
2022-09-12T22:08:39.156Z,19.31
2022-09-12T22:11:11.770Z,19.42
2022-09-12T22:13:45.716Z,19.44
2022-09-12T22:16:14.334Z,19.27
2022-09-12T22:18:42.200Z,19.31
2022-09-12T22:21:15.842Z,19.39
2022-09-12T22:24:02.478Z,19.40
2022-09-12T22:26:34.935Z,19.45
2022-09-12T22:29:04.921Z,19.33
2022-09-12T22:31:34.219Z,19.21
2022-09-12T22:34:02.398Z,19.30
2022-09-12T22:36:31.879Z,19.35
2022-09-12T22:39:00.677Z,19.28
2022-09-12T22:41:28.626Z,19.30
2022-09-12T22:43:57.275Z,19.28
2022-09-12T22:46:27.453Z,19.26
2022-09-12T22:48:55.784Z,19.24
2022-09-12T22:51:24.184Z,19.22
2022-09-12T22:53:52.431Z,19.26
2022-09-12T22:56:20.245Z,19.38
2022-09-12T22:58:48.612Z,19.51
2022-09-12T23:01:17.454Z,19.59
2022-09-12T23:03:46.656Z,19.66
2022-09-12T23:06:14.815Z,19.69
2022-09-12T23:08:43.631Z,19.72
2022-09-12T23:11:13.918Z,19.79
2022-09-12T23:13:44.670Z,19.78
2022-09-12T23:16:17.010Z,19.73
2022-09-12T23:18:46.543Z,19.68
2022-09-12T23:21:17.098Z,19.74
2022-09-12T23:23:44.984Z,19.76
2022-09-12T23:26:15.440Z,19.74
2022-09-12T23:28:52.683Z,19.73
2022-09-12T23:31:21.378Z,19.68
2022-09-12T23:33:53.262Z,19.66
2022-09-12T23:36:22.332Z,19.59
2022-09-12T23:38:50.931Z,19.55
2022-09-12T23:41:19.971Z,19.47
2022-09-12T23:43:48.183Z,19.38
2022-09-12T23:46:18.438Z,19.39
2022-09-12T23:48:46.584Z,19.35
2022-09-12T23:51:16.434Z,19.33
2022-09-12T23:53:44.261Z,19.39
2022-09-12T23:56:12.030Z,19.47
2022-09-12T23:58:39.859Z,19.57
